sensor_id;sensor_type;location;lat;lon;timestamp;pressure;altitude;pressure_sealevel;temperature;humidity
60345;BME280;46188;52.324;8.032;2023-04-21T00:01:28;100466.91;;;8.72;100.00
60345;BME280;46188;52.324;8.032;2023-04-21T00:03:54;100468.53;;;8.65;100.00
60345;BME280;46188;52.324;8.032;2023-04-21T00:06:19;100478.28;;;8.71;100.00
60345;BME280;46188;52.324;8.032;2023-04-21T00:08:47;100474.66;;;8.64;100.00
60345;BME280;46188;52.324;8.032;2023-04-21T00:11:12;100467.75;;;8.69;100.00
60345;BME280;46188;52.324;8.032;2023-04-21T00:13:39;100462.41;;;8.64;100.00
60345;BME280;46188;52.324;8.032;2023-04-21T00:16:05;100459.69;;;8.61;100.00
60345;BME280;46188;52.324;8.032;2023-04-21T00:18:30;100461.47;;;8.61;100.00
60345;BME280;46188;52.324;8.032;2023-04-21T00:20:56;100458.78;;;8.58;100.00
60345;BME280;46188;52.324;8.032;2023-04-21T00:23:21;100453.47;;;8.56;100.00
60345;BME280;46188;52.324;8.032;2023-04-21T00:25:46;100448.28;;;8.59;100.00
60345;BME280;46188;52.324;8.032;2023-04-21T00:28:12;100456.91;;;8.54;100.00
60345;BME280;46188;52.324;8.032;2023-04-21T00:30:37;100446.38;;;8.52;100.00
60345;BME280;46188;52.324;8.032;2023-04-21T00:33:02;100449.09;;;8.57;100.00
60345;BME280;46188;52.324;8.032;2023-04-21T00:35:27;100441.00;;;8.44;100.00
60345;BME280;46188;52.324;8.032;2023-04-21T00:37:53;100434.94;;;8.48;100.00
60345;BME280;46188;52.324;8.032;2023-04-21T00:40:18;100442.81;;;8.48;100.00
60345;BME280;46188;52.324;8.032;2023-04-21T00:42:44;100431.47;;;8.49;100.00
60345;BME280;46188;52.324;8.032;2023-04-21T00:45:10;100429.69;;;8.48;100.00
60345;BME280;46188;52.324;8.032;2023-04-21T00:47:35;100423.56;;;8.48;100.00
60345;BME280;46188;52.324;8.032;2023-04-21T00:50:01;100432.16;;;8.42;100.00
60345;BME280;46188;52.324;8.032;2023-04-21T00:52:27;100433.25;;;8.52;100.00
60345;BME280;46188;52.324;8.032;2023-04-21T00:54:53;100430.66;;;8.54;100.00
60345;BME280;46188;52.324;8.032;2023-04-21T00:57:19;100424.59;;;8.56;100.00
60345;BME280;46188;52.324;8.032;2023-04-21T00:59:45;100428.00;;;8.52;100.00
60345;BME280;46188;52.324;8.032;2023-04-21T01:02:10;100429.78;;;8.53;100.00
60345;BME280;46188;52.324;8.032;2023-04-21T01:04:36;100422.72;;;8.49;100.00
60345;BME280;46188;52.324;8.032;2023-04-21T01:07:04;100419.97;;;8.43;100.00
60345;BME280;46188;52.324;8.032;2023-04-21T01:09:30;100421.84;;;8.52;100.00
60345;BME280;46188;52.324;8.032;2023-04-21T01:12:03;100419.22;;;8.52;100.00
60345;BME280;46188;52.324;8.032;2023-04-21T01:14:29;100415.75;;;8.53;100.00
60345;BME280;46188;52.324;8.032;2023-04-21T01:16:55;100410.44;;;8.49;100.00
60345;BME280;46188;52.324;8.032;2023-04-21T01:19:21;100412.16;;;8.47;100.00
60345;BME280;46188;52.324;8.032;2023-04-21T01:21:47;100410.41;;;8.48;100.00
60345;BME280;46188;52.324;8.032;2023-04-21T01:24:13;100418.22;;;8.45;100.00
60345;BME280;46188;52.324;8.032;2023-04-21T01:26:38;100418.41;;;8.54;100.00
60345;BME280;46188;52.324;8.032;2023-04-21T01:29:04;100420.03;;;8.46;100.00
60345;BME280;46188;52.324;8.032;2023-04-21T01:31:29;100424.44;;;8.48;100.00
60345;BME280;46188;52.324;8.032;2023-04-21T01:33:54;100420.06;;;8.50;100.00
60345;BME280;46188;52.324;8.032;2023-04-21T01:36:19;100419.19;;;8.50;100.00
60345;BME280;46188;52.324;8.032;2023-04-21T01:38:45;100423.53;;;8.46;100.00
60345;BME280;46188;52.324;8.032;2023-04-21T01:41:10;100418.09;;;8.40;100.00
60345;BME280;46188;52.324;8.032;2023-04-21T01:43:36;100420.00;;;8.44;100.00
60345;BME280;46188;52.324;8.032;2023-04-21T01:46:02;100412.09;;;8.44;100.00
60345;BME280;46188;52.324;8.032;2023-04-21T01:48:27;100414.84;;;8.52;100.00
60345;BME280;46188;52.324;8.032;2023-04-21T01:50:53;100413.13;;;8.53;100.00
60345;BME280;46188;52.324;8.032;2023-04-21T01:53:18;100421.03;;;8.53;100.00
60345;BME280;46188;52.324;8.032;2023-04-21T01:55:43;100413.91;;;8.48;100.00
60345;BME280;46188;52.324;8.032;2023-04-21T01:58:08;100410.44;;;8.49;100.00
60345;BME280;46188;52.324;8.032;2023-04-21T02:00:34;100410.44;;;8.49;100.00
60345;BME280;46188;52.324;8.032;2023-04-21T02:02:59;100413.00;;;8.46;100.00
60345;BME280;46188;52.324;8.032;2023-04-21T02:05:25;100402.50;;;8.46;100.00
60345;BME280;46188;52.324;8.032;2023-04-21T02:07:50;100413.84;;;8.45;100.00
60345;BME280;46188;52.324;8.032;2023-04-21T02:10:15;100405.84;;;8.39;100.00
60345;BME280;46188;52.324;8.032;2023-04-21T02:12:41;100397.91;;;8.36;100.00
60345;BME280;46188;52.324;8.032;2023-04-21T02:15:06;100396.19;;;8.38;100.00
60345;BME280;46188;52.324;8.032;2023-04-21T02:17:32;100397.84;;;8.33;100.00
60345;BME280;46188;52.324;8.032;2023-04-21T02:19:57;100395.31;;;8.38;100.00
60345;BME280;46188;52.324;8.032;2023-04-21T02:22:22;100407.56;;;8.39;100.00
60345;BME280;46188;52.324;8.032;2023-04-21T02:24:48;100403.22;;;8.39;100.00
60345;BME280;46188;52.324;8.032;2023-04-21T02:27:13;100399.66;;;8.37;100.00
60345;BME280;46188;52.324;8.032;2023-04-21T02:29:39;100402.28;;;8.37;100.00
60345;BME280;46188;52.324;8.032;2023-04-21T02:32:04;100401.41;;;8.37;100.00
60345;BME280;46188;52.324;8.032;2023-04-21T02:34:30;100400.53;;;8.36;100.00
60345;BME280;46188;52.324;8.032;2023-04-21T02:36:55;100405.81;;;8.38;100.00
60345;BME280;46188;52.324;8.032;2023-04-21T02:39:20;100398.78;;;8.37;100.00
60345;BME280;46188;52.324;8.032;2023-04-21T02:41:45;100402.25;;;8.36;100.00
60345;BME280;46188;52.324;8.032;2023-04-21T02:44:11;100397.84;;;8.33;100.00
60345;BME280;46188;52.324;8.032;2023-04-21T02:46:41;100404.81;;;8.31;100.00
60345;BME280;46188;52.324;8.032;2023-04-21T02:49:07;100409.91;;;8.23;100.00
60345;BME280;46188;52.324;8.032;2023-04-21T02:51:32;100406.47;;;8.26;100.00
60345;BME280;46188;52.324;8.032;2023-04-21T02:53:58;100410.88;;;8.28;100.00
60345;BME280;46188;52.324;8.032;2023-04-21T02:56:23;100402.06;;;8.25;100.00
60345;BME280;46188;52.324;8.032;2023-04-21T02:58:48;100403.00;;;8.28;100.00
60345;BME280;46188;52.324;8.032;2023-04-21T03:01:13;100400.38;;;8.28;100.00
60345;BME280;46188;52.324;8.032;2023-04-21T03:03:39;100400.41;;;8.30;100.00
60345;BME280;46188;52.324;8.032;2023-04-21T03:06:04;100407.41;;;8.29;100.00
60345;BME280;46188;52.324;8.032;2023-04-21T03:08:30;100421.44;;;8.31;100.00
60345;BME280;46188;52.324;8.032;2023-04-21T03:10:56;100419.75;;;8.35;100.00
60345;BME280;46188;52.324;8.032;2023-04-21T03:13:22;100407.53;;;8.37;100.00
60345;BME280;46188;52.324;8.032;2023-04-21T03:15:48;100410.91;;;8.30;100.00
60345;BME280;46188;52.324;8.032;2023-04-21T03:18:14;100417.06;;;8.32;100.00
60345;BME280;46188;52.324;8.032;2023-04-21T03:20:39;100415.38;;;8.34;100.00
60345;BME280;46188;52.324;8.032;2023-04-21T03:23:05;100409.19;;;8.32;100.00
60345;BME280;46188;52.324;8.032;2023-04-21T03:25:30;100410.00;;;8.28;100.00
60345;BME280;46188;52.324;8.032;2023-04-21T03:27:55;100408.16;;;8.24;100.00
60345;BME280;46188;52.324;8.032;2023-04-21T03:30:22;100408.22;;;8.27;100.00
60345;BME280;46188;52.324;8.032;2023-04-21T03:32:48;100415.28;;;8.29;100.00
60345;BME280;46188;52.324;8.032;2023-04-21T03:35:14;100418.72;;;8.27;100.00
60345;BME280;46188;52.324;8.032;2023-04-21T03:37:39;100419.53;;;8.23;100.00
60345;BME280;46188;52.324;8.032;2023-04-21T03:40:05;100419.47;;;8.20;100.00
60345;BME280;46188;52.324;8.032;2023-04-21T03:42:31;100410.75;;;8.22;100.00
60345;BME280;46188;52.324;8.032;2023-04-21T03:45:00;100416.03;;;8.24;100.00
60345;BME280;46188;52.324;8.032;2023-04-21T03:47:26;100413.38;;;8.22;100.00
60345;BME280;46188;52.324;8.032;2023-04-21T03:49:51;100415.06;;;8.19;100.00
60345;BME280;46188;52.324;8.032;2023-04-21T03:52:16;100415.88;;;8.15;100.00
60345;BME280;46188;52.324;8.032;2023-04-21T03:54:42;100421.03;;;8.10;100.00
60345;BME280;46188;52.324;8.032;2023-04-21T03:57:07;100414.03;;;8.10;100.00
60345;BME280;46188;52.324;8.032;2023-04-21T03:59:32;100414.94;;;8.12;100.00
60345;BME280;46188;52.324;8.032;2023-04-21T04:01:57;100422.03;;;8.17;100.00
60345;BME280;46188;52.324;8.032;2023-04-21T04:04:23;100418.53;;;8.16;100.00
60345;BME280;46188;52.324;8.032;2023-04-21T04:06:48;100414.97;;;8.14;100.00
60345;BME280;46188;52.324;8.032;2023-04-21T04:09:13;100408.81;;;8.12;100.00
60345;BME280;46188;52.324;8.032;2023-04-21T04:11:38;100411.38;;;8.09;100.00
60345;BME280;46188;52.324;8.032;2023-04-21T04:14:04;100414.00;;;8.09;100.00
60345;BME280;46188;52.324;8.032;2023-04-21T04:16:29;100411.41;;;8.10;100.00
60345;BME280;46188;52.324;8.032;2023-04-21T04:18:54;100413.16;;;8.10;100.00
60345;BME280;46188;52.324;8.032;2023-04-21T04:21:20;100413.16;;;8.10;100.00
60345;BME280;46188;52.324;8.032;2023-04-21T04:23:45;100418.44;;;8.11;100.00
60345;BME280;46188;52.324;8.032;2023-04-21T04:26:11;100414.03;;;8.10;100.00
60345;BME280;46188;52.324;8.032;2023-04-21T04:28:36;100411.44;;;8.12;100.00
60345;BME280;46188;52.324;8.032;2023-04-21T04:31:02;100408.81;;;8.12;100.00
60345;BME280;46188;52.324;8.032;2023-04-21T04:33:28;100405.28;;;8.10;100.00
60345;BME280;46188;52.324;8.032;2023-04-21T04:35:54;100415.91;;;8.16;100.00
60345;BME280;46188;52.324;8.032;2023-04-21T04:38:19;100411.50;;;8.15;100.00
60345;BME280;46188;52.324;8.032;2023-04-21T04:40:44;100409.78;;;8.17;100.00
60345;BME280;46188;52.324;8.032;2023-04-21T04:43:10;100408.97;;;8.20;100.00
60345;BME280;46188;52.324;8.032;2023-04-21T04:45:36;100415.13;;;8.22;100.00
60345;BME280;46188;52.324;8.032;2023-04-21T04:48:02;100410.81;;;8.25;100.00
60345;BME280;46188;52.324;8.032;2023-04-21T04:50:27;100416.16;;;8.30;100.00
60345;BME280;46188;52.324;8.032;2023-04-21T04:52:52;100409.16;;;8.30;100.00
60345;BME280;46188;52.324;8.032;2023-04-21T04:55:18;100408.28;;;8.30;100.00
60345;BME280;46188;52.324;8.032;2023-04-21T04:57:43;100405.75;;;8.35;100.00
60345;BME280;46188;52.324;8.032;2023-04-21T05:00:09;100421.72;;;8.44;100.00
60345;BME280;46188;52.324;8.032;2023-04-21T05:02:36;100424.25;;;8.42;100.00
60345;BME280;46188;52.324;8.032;2023-04-21T05:05:02;100418.28;;;8.48;100.00
60345;BME280;46188;52.324;8.032;2023-04-21T05:07:27;100414.81;;;8.49;100.00
60345;BME280;46188;52.324;8.032;2023-04-21T05:09:52;100420.97;;;8.51;100.00
60345;BME280;46188;52.324;8.032;2023-04-21T05:12:18;100415.69;;;8.49;100.00
60345;BME280;46188;52.324;8.032;2023-04-21T05:14:43;100426.34;;;8.56;100.00
60345;BME280;46188;52.324;8.032;2023-04-21T05:17:09;100423.72;;;8.56;100.00
60345;BME280;46188;52.324;8.032;2023-04-21T05:19:35;100429.69;;;8.48;100.00
60345;BME280;46188;52.324;8.032;2023-04-21T05:22:01;100423.63;;;8.51;100.00
60345;BME280;46188;52.324;8.032;2023-04-21T05:24:26;100422.75;;;8.54;100.00
60345;BME280;46188;52.324;8.032;2023-04-21T05:26:51;100418.41;;;8.54;100.00
60345;BME280;46188;52.324;8.032;2023-04-21T05:29:17;100421.97;;;8.58;100.00
60345;BME280;46188;52.324;8.032;2023-04-21T05:31:42;100424.66;;;8.61;100.00
60345;BME280;46188;52.324;8.032;2023-04-21T05:34:07;100426.41;;;8.62;100.00
60345;BME280;46188;52.324;8.032;2023-04-21T05:36:33;100424.72;;;8.65;100.00
60345;BME280;46188;52.324;8.032;2023-04-21T05:38:58;100429.16;;;8.68;100.00
60345;BME280;46188;52.324;8.032;2023-04-21T05:41:23;100417.81;;;8.69;100.00
60345;BME280;46188;52.324;8.032;2023-04-21T05:43:48;100440.53;;;8.67;100.00
60345;BME280;46188;52.324;8.032;2023-04-21T05:46:14;100433.72;;;8.78;100.00
60345;BME280;46188;52.324;8.032;2023-04-21T05:48:39;100436.44;;;8.83;100.00
60345;BME280;46188;52.324;8.032;2023-04-21T05:51:09;100445.19;;;8.83;100.00
60345;BME280;46188;52.324;8.032;2023-04-21T05:53:36;100443.63;;;8.93;100.00
60345;BME280;46188;52.324;8.032;2023-04-21T05:56:01;100441.91;;;8.97;100.00
60345;BME280;46188;52.324;8.032;2023-04-21T05:58:26;100444.59;;;9.00;100.00
60345;BME280;46188;52.324;8.032;2023-04-21T06:00:52;100444.78;;;9.09;100.00
60345;BME280;46188;52.324;8.032;2023-04-21T06:03:17;100439.66;;;9.17;100.00
60345;BME280;46188;52.324;8.032;2023-04-21T06:05:42;100439.78;;;9.26;100.00
60345;BME280;46188;52.324;8.032;2023-04-21T06:08:07;100438.09;;;9.31;100.00
60345;BME280;46188;52.324;8.032;2023-04-21T06:10:33;100437.38;;;9.41;100.00
60345;BME280;46188;52.324;8.032;2023-04-21T06:12:58;100440.13;;;9.49;100.00
60345;BME280;46188;52.324;8.032;2023-04-21T06:15:23;100434.03;;;9.50;100.00
60345;BME280;46188;52.324;8.032;2023-04-21T06:17:52;100434.06;;;9.53;100.00
60345;BME280;46188;52.324;8.032;2023-04-21T06:20:19;100428.78;;;9.52;100.00
60345;BME280;46188;52.324;8.032;2023-04-21T06:22:44;100424.50;;;9.60;100.00
60345;BME280;46188;52.324;8.032;2023-04-21T06:25:09;100425.47;;;9.65;100.00
60345;BME280;46188;52.324;8.032;2023-04-21T06:27:35;100421.94;;;9.66;100.00
60345;BME280;46188;52.324;8.032;2023-04-21T06:30:00;100429.97;;;9.74;100.00
60345;BME280;46188;52.324;8.032;2023-04-21T06:32:25;100429.03;;;9.70;100.00
60345;BME280;46188;52.324;8.032;2023-04-21T06:34:50;100427.38;;;9.77;100.00
60345;BME280;46188;52.324;8.032;2023-04-21T06:37:16;100424.91;;;9.91;100.00
60345;BME280;46188;52.324;8.032;2023-04-21T06:39:41;100425.81;;;9.93;100.00
60345;BME280;46188;52.324;8.032;2023-04-21T06:42:06;100422.38;;;9.97;100.00
60345;BME280;46188;52.324;8.032;2023-04-21T06:44:32;100431.28;;;10.08;100.00
60345;BME280;46188;52.324;8.032;2023-04-21T06:46:57;100421.78;;;10.23;100.00
60345;BME280;46188;52.324;8.032;2023-04-21T06:49:22;100420.97;;;10.28;100.00
60345;BME280;46188;52.324;8.032;2023-04-21T06:51:48;100422.88;;;10.39;100.00
60345;BME280;46188;52.324;8.032;2023-04-21T06:54:13;100416.88;;;10.52;100.00
60345;BME280;46188;52.324;8.032;2023-04-21T06:56:38;100419.47;;;10.50;100.00
60345;BME280;46188;52.324;8.032;2023-04-21T06:59:04;100405.56;;;10.64;100.00
60345;BME280;46188;52.324;8.032;2023-04-21T07:01:29;100406.47;;;10.64;100.00
60345;BME280;46188;52.324;8.032;2023-04-21T07:03:54;100412.75;;;10.80;100.00
60345;BME280;46188;52.324;8.032;2023-04-21T07:06:20;100412.00;;;10.95;100.00
60345;BME280;46188;52.324;8.032;2023-04-21T07:08:45;100408.56;;;11.05;100.00
60345;BME280;46188;52.324;8.032;2023-04-21T07:11:11;100401.63;;;11.17;100.00
60345;BME280;46188;52.324;8.032;2023-04-21T07:13:36;100403.38;;;11.18;100.00
60345;BME280;46188;52.324;8.032;2023-04-21T07:16:01;100399.88;;;11.22;100.00
60345;BME280;46188;52.324;8.032;2023-04-21T07:18:26;100400.81;;;11.29;100.00
60345;BME280;46188;52.324;8.032;2023-04-21T07:20:52;100398.19;;;11.29;100.00
60345;BME280;46188;52.324;8.032;2023-04-21T07:23:17;100400.03;;;11.45;100.00
60345;BME280;46188;52.324;8.032;2023-04-21T07:25:42;100400.16;;;11.59;100.00
60345;BME280;46188;52.324;8.032;2023-04-21T07:28:08;100401.09;;;11.72;100.00
60345;BME280;46188;52.324;8.032;2023-04-21T07:30:33;100395.81;;;11.78;100.00
60345;BME280;46188;52.324;8.032;2023-04-21T07:32:59;100400.25;;;11.80;100.00
60345;BME280;46188;52.324;8.032;2023-04-21T07:35:24;100387.81;;;11.58;100.00
60345;BME280;46188;52.324;8.032;2023-04-21T07:37:50;100396.50;;;11.41;100.00
60345;BME280;46188;52.324;8.032;2023-04-21T07:40:15;100398.38;;;11.59;100.00
60345;BME280;46188;52.324;8.032;2023-04-21T07:42:40;100393.16;;;11.73;100.00
60345;BME280;46188;52.324;8.032;2023-04-21T07:45:06;100397.72;;;12.00;100.00
60345;BME280;46188;52.324;8.032;2023-04-21T07:47:32;100396.97;;;12.39;100.00
60345;BME280;46188;52.324;8.032;2023-04-21T07:51:26;100384.69;;;12.70;100.00
60345;BME280;46188;52.324;8.032;2023-04-21T07:53:52;100393.50;;;13.00;100.00
60345;BME280;46188;52.324;8.032;2023-04-21T07:56:17;100395.28;;;13.18;100.00
60345;BME280;46188;52.324;8.032;2023-04-21T07:58:42;100393.50;;;13.40;100.00
60345;BME280;46188;52.324;8.032;2023-04-21T08:01:08;100400.47;;;13.75;100.00
60345;BME280;46188;52.324;8.032;2023-04-21T08:03:33;100395.16;;;13.87;100.00
60345;BME280;46188;52.324;8.032;2023-04-21T08:05:58;100393.25;;;14.14;100.00
60345;BME280;46188;52.324;8.032;2023-04-21T08:08:24;100392.22;;;14.36;100.00
60345;BME280;46188;52.324;8.032;2023-04-21T08:10:49;100385.06;;;14.62;100.00
60345;BME280;46188;52.324;8.032;2023-04-21T08:13:14;100380.50;;;14.79;100.00
60345;BME280;46188;52.324;8.032;2023-04-21T08:15:40;100385.75;;;14.88;100.00
60345;BME280;46188;52.324;8.032;2023-04-21T08:18:05;100387.38;;;15.02;98.67
60345;BME280;46188;52.324;8.032;2023-04-21T08:20:30;100385.41;;;15.22;94.93
60345;BME280;46188;52.324;8.032;2023-04-21T08:22:56;100381.72;;;15.37;93.41
60345;BME280;46188;52.324;8.032;2023-04-21T08:25:21;100378.84;;;15.59;92.76
60345;BME280;46188;52.324;8.032;2023-04-21T08:27:47;100378.00;;;15.57;91.92
60345;BME280;46188;52.324;8.032;2023-04-21T08:30:12;100375.47;;;15.44;91.24
60345;BME280;46188;52.324;8.032;2023-04-21T08:32:38;100381.59;;;15.53;91.68
60345;BME280;46188;52.324;8.032;2023-04-21T08:35:03;100379.75;;;15.58;89.46
60345;BME280;46188;52.324;8.032;2023-04-21T08:37:29;100374.31;;;15.70;89.21
60345;BME280;46188;52.324;8.032;2023-04-21T08:39:54;100372.56;;;15.67;88.19
60345;BME280;46188;52.324;8.032;2023-04-21T08:42:19;100368.00;;;15.80;86.07
60345;BME280;46188;52.324;8.032;2023-04-21T08:44:45;100371.38;;;15.95;85.07
60345;BME280;46188;52.324;8.032;2023-04-21T08:47:12;100377.63;;;15.92;84.94
60345;BME280;46188;52.324;8.032;2023-04-21T08:49:38;100377.47;;;16.03;84.04
60345;BME280;46188;52.324;8.032;2023-04-21T08:52:04;100379.09;;;16.15;84.00
60345;BME280;46188;52.324;8.032;2023-04-21T08:54:29;100381.75;;;16.15;82.92
60345;BME280;46188;52.324;8.032;2023-04-21T08:56:56;100379.88;;;16.21;81.62
60345;BME280;46188;52.324;8.032;2023-04-21T08:59:21;100372.53;;;16.40;81.19
60345;BME280;46188;52.324;8.032;2023-04-21T09:04:37;100374.72;;;16.71;79.37
60345;BME280;46188;52.324;8.032;2023-04-21T09:07:03;100367.63;;;16.72;78.60
60345;BME280;46188;52.324;8.032;2023-04-21T09:09:28;100362.38;;;16.67;77.72
60345;BME280;46188;52.324;8.032;2023-04-21T09:11:55;100362.38;;;16.67;77.70
60345;BME280;46188;52.324;8.032;2023-04-21T09:14:31;100361.53;;;16.65;77.82
60345;BME280;46188;52.324;8.032;2023-04-21T09:17:01;100363.13;;;16.75;77.50
60345;BME280;46188;52.324;8.032;2023-04-21T09:19:28;100358.28;;;17.02;76.92
60345;BME280;46188;52.324;8.032;2023-04-21T09:21:53;100360.19;;;16.94;76.39
60345;BME280;46188;52.324;8.032;2023-04-21T09:24:19;100355.25;;;17.22;76.15
60345;BME280;46188;52.324;8.032;2023-04-21T09:26:49;100352.94;;;17.50;75.63
60345;BME280;46188;52.324;8.032;2023-04-21T09:29:15;100359.69;;;17.70;75.05
60345;BME280;46188;52.324;8.032;2023-04-21T09:31:42;100354.97;;;17.83;74.05
60345;BME280;46188;52.324;8.032;2023-04-21T09:34:23;100362.66;;;18.00;71.89
60345;BME280;46188;52.324;8.032;2023-04-21T09:37:01;100359.41;;;18.26;71.93
60345;BME280;46188;52.324;8.032;2023-04-21T09:39:30;100342.94;;;18.46;70.62
60345;BME280;46188;52.324;8.032;2023-04-21T09:41:57;100344.56;;;18.52;71.20
60345;BME280;46188;52.324;8.032;2023-04-21T09:44:23;100350.16;;;18.42;71.04
60345;BME280;46188;52.324;8.032;2023-04-21T09:46:50;100354.53;;;18.45;71.25
60345;BME280;46188;52.324;8.032;2023-04-21T09:49:21;100345.59;;;18.46;69.96
60345;BME280;46188;52.324;8.032;2023-04-21T09:51:47;100343.81;;;18.47;69.76
60345;BME280;46188;52.324;8.032;2023-04-21T09:54:15;100345.56;;;18.48;69.00
60345;BME280;46188;52.324;8.032;2023-04-21T09:56:42;100334.00;;;18.49;68.72
60345;BME280;46188;52.324;8.032;2023-04-21T09:59:10;100335.97;;;18.76;68.30
60345;BME280;46188;52.324;8.032;2023-04-21T10:01:39;100334.19;;;18.77;67.28
60345;BME280;46188;52.324;8.032;2023-04-21T10:04:05;100342.59;;;18.60;68.02
60345;BME280;46188;52.324;8.032;2023-04-21T10:06:31;100339.09;;;18.58;67.19
60345;BME280;46188;52.324;8.032;2023-04-21T10:08:57;100343.16;;;18.35;66.87
60345;BME280;46188;52.324;8.032;2023-04-21T10:11:23;100339.19;;;18.16;67.55
60345;BME280;46188;52.324;8.032;2023-04-21T10:13:49;100331.94;;;18.22;67.56
60345;BME280;46188;52.324;8.032;2023-04-21T10:16:16;100330.47;;;18.47;66.83
60345;BME280;46188;52.324;8.032;2023-04-21T10:18:43;100316.88;;;18.57;66.54
60345;BME280;46188;52.324;8.032;2023-04-21T10:21:16;100310.41;;;18.66;66.05
60345;BME280;46188;52.324;8.032;2023-04-21T10:27:10;100296.00;;;19.08;64.12
60345;BME280;46188;52.324;8.032;2023-04-21T10:29:35;100302.56;;;19.29;63.58
60345;BME280;46188;52.324;8.032;2023-04-21T10:32:02;100307.63;;;19.40;62.69
60345;BME280;46188;52.324;8.032;2023-04-21T10:34:33;100296.72;;;19.47;61.79
60345;BME280;46188;52.324;8.032;2023-04-21T10:39:31;100286.78;;;19.51;62.31
60345;BME280;46188;52.324;8.032;2023-04-21T10:52:44;100272.16;;;19.33;62.81
60345;BME280;46188;52.324;8.032;2023-04-21T10:55:10;100260.09;;;18.87;64.08
60345;BME280;46188;52.324;8.032;2023-04-21T10:57:39;100259.28;;;18.47;64.00
60345;BME280;46188;52.324;8.032;2023-04-21T11:00:06;100259.13;;;18.53;63.58
60345;BME280;46188;52.324;8.032;2023-04-21T11:02:32;100253.69;;;18.56;62.48
60345;BME280;46188;52.324;8.032;2023-04-21T11:04:59;100258.75;;;18.69;62.02
60345;BME280;46188;52.324;8.032;2023-04-21T11:07:25;100258.53;;;18.42;63.19
60345;BME280;46188;52.324;8.032;2023-04-21T11:10:06;100253.38;;;18.70;62.03
60345;BME280;46188;52.324;8.032;2023-04-21T11:12:39;100241.97;;;18.98;60.56
60345;BME280;46188;52.324;8.032;2023-04-21T11:15:07;100235.31;;;19.13;60.56
60345;BME280;46188;52.324;8.032;2023-04-21T11:17:33;100243.31;;;19.13;60.55
60345;BME280;46188;52.324;8.032;2023-04-21T11:20:00;100243.53;;;19.07;60.73
60345;BME280;46188;52.324;8.032;2023-04-21T11:22:26;100245.81;;;18.88;60.37
60345;BME280;46188;52.324;8.032;2023-04-21T11:24:55;100239.78;;;18.78;59.04
60345;BME280;46188;52.324;8.032;2023-04-21T11:27:22;100223.28;;;18.63;60.53
60345;BME280;46188;52.324;8.032;2023-04-21T11:29:48;100230.06;;;18.41;61.37
60345;BME280;46188;52.324;8.032;2023-04-21T11:32:15;100229.88;;;18.13;59.50
60345;BME280;46188;52.324;8.032;2023-04-21T11:34:40;100222.78;;;18.12;57.35
60345;BME280;46188;52.324;8.032;2023-04-21T11:37:07;100210.19;;;18.17;57.45
60345;BME280;46188;52.324;8.032;2023-04-21T11:39:33;100204.25;;;18.05;56.06
60345;BME280;46188;52.324;8.032;2023-04-21T11:41:58;100214.84;;;18.08;56.43
60345;BME280;46188;52.324;8.032;2023-04-21T11:46:59;100206.81;;;18.80;54.70
60345;BME280;46188;52.324;8.032;2023-04-21T11:49:25;100202.16;;;19.20;53.55
60345;BME280;46188;52.324;8.032;2023-04-21T11:51:53;100203.66;;;19.60;51.64
60345;BME280;46188;52.324;8.032;2023-04-21T11:54:19;100205.63;;;19.24;52.09
60345;BME280;46188;52.324;8.032;2023-04-21T11:56:46;100197.28;;;19.64;51.60
60345;BME280;46188;52.324;8.032;2023-04-21T11:59:17;100182.53;;;19.51;50.70
60345;BME280;46188;52.324;8.032;2023-04-21T12:01:48;100190.56;;;19.51;49.98
60345;BME280;46188;52.324;8.032;2023-04-21T12:04:21;100190.72;;;19.46;51.01
60345;BME280;46188;52.324;8.032;2023-04-21T12:06:56;100167.00;;;19.64;50.39
60345;BME280;46188;52.324;8.032;2023-04-21T12:09:22;100182.06;;;20.23;49.97
60345;BME280;46188;52.324;8.032;2023-04-21T12:11:49;100173.78;;;20.82;48.75
60345;BME280;46188;52.324;8.032;2023-04-21T12:14:16;100163.28;;;21.25;47.92
60345;BME280;46188;52.324;8.032;2023-04-21T12:16:41;100152.50;;;21.27;47.62
60345;BME280;46188;52.324;8.032;2023-04-21T12:19:07;100166.56;;;21.57;47.35
60345;BME280;46188;52.324;8.032;2023-04-21T12:21:32;100151.38;;;21.56;47.17
60345;BME280;46188;52.324;8.032;2023-04-21T12:23:57;100156.97;;;21.26;47.74
60345;BME280;46188;52.324;8.032;2023-04-21T12:26:23;100151.63;;;21.02;47.13
60345;BME280;46188;52.324;8.032;2023-04-21T12:28:49;100159.53;;;21.29;47.28
60345;BME280;46188;52.324;8.032;2023-04-21T12:31:14;100143.63;;;21.25;47.08
60345;BME280;46188;52.324;8.032;2023-04-21T12:33:39;100142.75;;;21.00;46.83
60345;BME280;46188;52.324;8.032;2023-04-21T12:36:05;100134.03;;;21.19;46.72
60345;BME280;46188;52.324;8.032;2023-04-21T12:38:31;100133.59;;;21.30;46.30
60345;BME280;46188;52.324;8.032;2023-04-21T12:40:56;100118.72;;;21.68;45.62
60345;BME280;46188;52.324;8.032;2023-04-21T12:43:21;100116.44;;;22.02;44.59
60345;BME280;46188;52.324;8.032;2023-04-21T12:45:48;100119.88;;;22.26;43.61
60345;BME280;46188;52.324;8.032;2023-04-21T12:48:13;100116.81;;;22.56;43.31
60345;BME280;46188;52.324;8.032;2023-04-21T12:50:38;100112.91;;;22.22;43.20
60345;BME280;46188;52.324;8.032;2023-04-21T12:53:04;100108.69;;;22.16;44.00
60345;BME280;46188;52.324;8.032;2023-04-21T12:55:29;100117.97;;;22.50;42.99
60345;BME280;46188;52.324;8.032;2023-04-21T12:57:54;100121.94;;;22.62;43.19
60345;BME280;46188;52.324;8.032;2023-04-21T13:00:20;100108.66;;;22.38;43.07
60345;BME280;46188;52.324;8.032;2023-04-21T13:02:45;100112.34;;;22.56;43.07
60345;BME280;46188;52.324;8.032;2023-04-21T13:05:10;100102.59;;;22.74;42.88